createdAt,value
2023-05-05T00:00:32.823Z,6.60
2023-05-05T00:05:35.511Z,6.13
2023-05-05T00:10:39.582Z,5.57
2023-05-05T00:15:42.987Z,5.90
2023-05-05T00:20:47.044Z,5.90
2023-05-05T00:25:51.086Z,6.60
2023-05-05T00:30:53.786Z,11.40
2023-05-05T00:35:56.522Z,10.00
2023-05-05T00:41:00.573Z,7.80
2023-05-05T00:46:10.605Z,7.18
2023-05-05T00:51:14.748Z,8.57
2023-05-05T00:56:20.887Z,8.25
2023-05-05T01:01:24.063Z,7.60
2023-05-05T01:06:42.413Z,5.60
2023-05-05T01:11:52.688Z,7.13
2023-05-05T01:17:00.036Z,11.27
2023-05-05T01:22:08.210Z,9.13
2023-05-05T01:27:45.941Z,6.95
2023-05-05T01:32:55.153Z,9.30
2023-05-05T01:38:04.652Z,8.75
2023-05-05T01:43:09.912Z,10.35
2023-05-05T01:48:17.926Z,10.07
2023-05-05T01:53:22.209Z,9.48
2023-05-05T01:58:27.887Z,8.02
2023-05-05T02:03:34.349Z,8.23
2023-05-05T02:08:38.942Z,9.38
2023-05-05T02:13:44.020Z,10.93
2023-05-05T02:18:49.429Z,9.43
2023-05-05T02:23:52.193Z,9.18
2023-05-05T02:29:03.342Z,11.18
2023-05-05T02:34:09.036Z,9.45
2023-05-05T02:39:16.327Z,7.75
2023-05-05T02:44:20.881Z,10.45
2023-05-05T02:49:25.340Z,12.18
2023-05-05T02:54:28.793Z,10.88
2023-05-05T02:59:39.249Z,10.77
2023-05-05T03:04:46.814Z,10.38
2023-05-05T03:09:56.765Z,14.02
2023-05-05T03:15:01.763Z,23.80
2023-05-05T03:20:06.943Z,18.10
2023-05-05T03:25:10.288Z,15.63
2023-05-05T03:30:13.988Z,16.15
2023-05-05T03:35:18.011Z,17.05
2023-05-05T03:40:23.490Z,20.13
2023-05-05T03:45:29.924Z,18.27
2023-05-05T03:50:33.987Z,16.97
2023-05-05T03:55:36.956Z,22.02
2023-05-05T04:00:39.583Z,21.67
2023-05-05T04:05:43.521Z,23.67
2023-05-05T04:10:46.618Z,20.98
2023-05-05T04:15:49.297Z,19.42
2023-05-05T04:20:53.348Z,19.87
2023-05-05T04:25:56.020Z,16.60
2023-05-05T04:30:59.387Z,18.80
2023-05-05T04:41:07.218Z,19.10
2023-05-05T04:46:09.975Z,21.10
2023-05-05T04:51:14.062Z,15.95
2023-05-05T04:56:16.894Z,16.13
2023-05-05T05:01:19.560Z,18.08
2023-05-05T05:06:23.768Z,23.13
2023-05-05T05:11:26.477Z,17.55
2023-05-05T05:16:29.213Z,16.15
2023-05-05T05:21:33.202Z,15.93
2023-05-05T05:26:35.867Z,17.90
2023-05-05T05:31:39.770Z,18.02
2023-05-05T05:36:43.758Z,15.57
2023-05-05T05:41:46.452Z,11.32
2023-05-05T05:46:49.195Z,14.90
2023-05-05T05:51:53.204Z,13.50
2023-05-05T05:56:55.892Z,13.25
2023-05-05T06:01:58.570Z,13.48
2023-05-05T06:07:02.506Z,12.30
2023-05-05T06:12:05.270Z,14.43
2023-05-05T06:17:07.895Z,11.52
2023-05-05T06:22:11.854Z,10.75
2023-05-05T06:27:14.569Z,8.20
2023-05-05T06:32:17.294Z,8.55
2023-05-05T06:37:21.331Z,7.45
2023-05-05T06:42:24.097Z,7.35
2023-05-05T06:47:26.974Z,7.10
2023-05-05T06:52:30.996Z,8.30
2023-05-05T06:57:33.693Z,7.78
2023-05-05T07:02:36.385Z,8.05
2023-05-05T07:07:42.282Z,9.35
2023-05-05T07:12:45.027Z,8.40
2023-05-05T07:17:47.894Z,10.80
2023-05-05T07:22:52.050Z,9.55
2023-05-05T07:27:54.837Z,8.32
2023-05-05T07:32:57.779Z,7.22
2023-05-05T07:38:02.216Z,6.53
2023-05-05T07:43:04.914Z,6.90
2023-05-05T07:48:07.503Z,3.17
2023-05-05T07:53:14.811Z,5.30
2023-05-05T07:58:18.201Z,5.70
2023-05-05T08:03:24.287Z,4.25
2023-05-05T08:08:28.674Z,5.82
2023-05-05T08:13:31.362Z,4.03
2023-05-05T08:18:37.426Z,2.70
2023-05-05T08:23:42.444Z,3.65
2023-05-05T08:28:45.117Z,2.65
2023-05-05T08:33:47.732Z,2.90
2023-05-05T08:38:52.172Z,3.13
2023-05-05T08:43:54.870Z,3.58
2023-05-05T08:48:58.740Z,4.55
2023-05-05T08:54:05.259Z,5.95
2023-05-05T08:59:09.381Z,3.53
2023-05-05T09:04:12.035Z,4.20
2023-05-05T09:09:16.273Z,3.53
2023-05-05T09:14:18.927Z,3.03
2023-05-05T09:19:21.563Z,1.95
2023-05-05T09:24:25.521Z,4.07
2023-05-05T09:29:28.275Z,7.05
2023-05-05T09:34:33.527Z,2.55
2023-05-05T09:39:37.492Z,4.25
2023-05-05T09:44:41.096Z,3.45
2023-05-05T09:49:43.815Z,3.20
2023-05-05T09:54:55.058Z,2.55
2023-05-05T09:59:58.746Z,3.92
2023-05-05T10:05:10.835Z,3.15
2023-05-05T10:10:16.690Z,2.08
2023-05-05T10:15:19.870Z,3.75
2023-05-05T10:20:23.996Z,2.38
2023-05-05T10:25:31.493Z,3.08
2023-05-05T10:30:41.913Z,5.05
2023-05-05T10:35:47.290Z,2.75
2023-05-05T10:40:51.519Z,4.88
2023-05-05T10:45:55.255Z,2.92
2023-05-05T10:51:07.156Z,2.45
2023-05-05T10:56:16.407Z,8.15
2023-05-05T11:01:33.814Z,11.07
2023-05-05T11:06:36.661Z,7.70
2023-05-05T11:12:06.800Z,6.72
2023-05-05T11:17:46.600Z,8.40
2023-05-05T11:23:23.706Z,2.30
2023-05-05T11:28:30.964Z,3.78
2023-05-05T11:33:36.023Z,3.60
2023-05-05T11:39:05.350Z,2.63
2023-05-05T11:44:13.582Z,3.40
2023-05-05T11:49:27.440Z,4.80
2023-05-05T11:54:31.059Z,2.10
2023-05-05T11:59:37.226Z,3.92
2023-05-05T12:04:40.960Z,6.07
2023-05-05T12:14:51.812Z,4.05
2023-05-05T12:19:55.664Z,3.20
2023-05-05T12:25:01.016Z,4.05
2023-05-05T12:30:16.993Z,10.93
2023-05-05T12:35:19.843Z,0.95
2023-05-05T12:45:44.991Z,1.00
2023-05-05T12:50:47.709Z,1.65
2023-05-05T12:55:51.268Z,1.30
2023-05-05T13:01:10.458Z,1.75
2023-05-05T13:06:24.563Z,3.22
2023-05-05T13:11:27.324Z,4.53
2023-05-05T13:16:31.499Z,4.03
2023-05-05T13:21:34.183Z,2.92
2023-05-05T13:26:36.887Z,6.37
2023-05-05T13:31:41.633Z,5.50
2023-05-05T13:36:44.492Z,3.13
2023-05-05T13:41:47.203Z,3.33
2023-05-05T13:46:51.819Z,7.13
2023-05-05T13:51:55.170Z,3.63
2023-05-05T13:56:58.108Z,2.10
2023-05-05T14:02:02.030Z,4.47
2023-05-05T14:07:04.830Z,3.05
2023-05-05T14:12:07.599Z,3.58
2023-05-05T14:17:12.778Z,4.27
2023-05-05T14:22:15.411Z,4.10
2023-05-05T14:27:18.002Z,4.10
2023-05-05T14:32:23.045Z,3.57
2023-05-05T14:37:25.781Z,6.28
2023-05-05T14:42:28.377Z,3.77
2023-05-05T14:47:32.401Z,3.40
2023-05-05T14:52:36.529Z,4.07
2023-05-05T14:57:39.252Z,4.35
2023-05-05T15:02:43.428Z,3.97
2023-05-05T15:07:46.160Z,3.97
2023-05-05T15:12:49.465Z,3.85
2023-05-05T15:17:53.585Z,4.18
2023-05-05T15:22:56.406Z,3.63
2023-05-05T15:28:00.944Z,3.17
2023-05-05T15:33:05.008Z,3.60
2023-05-05T15:38:07.792Z,3.97
2023-05-05T15:43:10.660Z,2.60
2023-05-05T15:48:14.696Z,4.45
2023-05-05T15:53:17.509Z,1.90
2023-05-05T15:58:20.443Z,3.28
2023-05-05T16:08:27.054Z,4.00
2023-05-05T16:13:29.832Z,1.67
2023-05-05T16:18:33.846Z,2.05
2023-05-05T16:23:36.559Z,2.60
2023-05-05T16:33:43.766Z,2.70
2023-05-05T16:38:46.475Z,1.77
2023-05-05T16:48:54.058Z,1.40
2023-05-05T16:53:57.103Z,2.03
2023-05-05T16:58:59.776Z,1.92
2023-05-05T17:04:03.759Z,1.75
2023-05-05T17:09:06.727Z,2.30
2023-05-05T17:14:09.358Z,3.03
2023-05-05T17:19:13.344Z,2.65
2023-05-05T17:24:16.003Z,13.07
2023-05-05T17:39:26.313Z,1.90
2023-05-05T17:44:28.930Z,1.92
2023-05-05T17:49:32.825Z,1.63
2023-05-05T17:54:35.485Z,3.10
2023-05-05T17:59:38.174Z,4.50
2023-05-05T18:04:42.556Z,3.85
2023-05-05T18:09:45.264Z,3.05
2023-05-05T18:14:47.886Z,1.55
2023-05-05T18:19:51.860Z,2.30
2023-05-05T18:24:58.907Z,3.13
2023-05-05T18:30:01.743Z,3.45
2023-05-05T18:35:06.514Z,2.13
2023-05-05T18:40:10.955Z,2.38
2023-05-05T18:45:13.952Z,3.33
2023-05-05T18:50:18.981Z,2.65
2023-05-05T18:55:22.107Z,2.72
2023-05-05T19:00:25.098Z,3.83
2023-05-05T19:05:29.233Z,2.20
2023-05-05T19:10:31.830Z,2.92
2023-05-05T19:15:34.497Z,3.73
2023-05-05T19:20:42.780Z,3.60
2023-05-05T19:25:45.507Z,2.92
2023-05-05T19:30:48.713Z,9.80
2023-05-05T19:35:52.717Z,10.20
2023-05-05T19:40:55.328Z,8.77
2023-05-05T19:45:57.893Z,7.57
2023-05-05T19:51:01.982Z,12.47
2023-05-05T19:56:05.758Z,7.90
2023-05-05T20:01:08.435Z,7.70
2023-05-05T20:06:12.448Z,11.97
2023-05-05T20:11:15.396Z,10.43
2023-05-05T20:16:18.411Z,7.70
2023-05-05T20:21:23.508Z,8.05
2023-05-05T20:26:26.510Z,5.43
2023-05-05T20:31:29.290Z,5.53
2023-05-05T20:36:33.392Z,6.57
2023-05-05T20:41:37.957Z,14.13
2023-05-05T20:46:40.703Z,13.00
2023-05-05T20:51:44.653Z,14.07
2023-05-05T20:56:47.300Z,9.43
2023-05-05T21:01:49.954Z,8.73
2023-05-05T21:06:53.925Z,10.53
2023-05-05T21:11:56.589Z,9.80
2023-05-05T21:16:59.254Z,11.33
2023-05-05T21:22:03.208Z,26.47
2023-05-05T21:27:05.891Z,33.13
2023-05-05T21:32:09.731Z,37.37
2023-05-05T21:37:13.686Z,23.75
2023-05-05T21:42:16.406Z,18.85
2023-05-05T21:47:19.005Z,33.43
2023-05-05T21:52:24.001Z,23.33
2023-05-05T21:57:26.608Z,19.60
2023-05-05T22:02:29.275Z,15.40
2023-05-05T22:07:33.348Z,21.83
2023-05-05T22:12:36.010Z,18.55
2023-05-05T22:17:38.627Z,16.00
2023-05-05T22:22:42.662Z,15.03
2023-05-05T22:27:45.433Z,21.50
2023-05-05T22:32:48.167Z,19.93
2023-05-05T22:37:52.169Z,17.10
2023-05-05T22:42:54.777Z,18.65
2023-05-05T22:47:57.546Z,16.87
2023-05-05T22:53:01.597Z,16.67
2023-05-05T22:58:04.220Z,18.48
2023-05-05T23:03:06.993Z,20.23
2023-05-05T23:08:11.117Z,20.30
2023-05-05T23:13:13.873Z,22.38
2023-05-05T23:18:16.523Z,26.83
2023-05-05T23:23:20.597Z,27.58
2023-05-05T23:28:23.284Z,29.98
2023-05-05T23:33:25.943Z,28.93
2023-05-05T23:38:29.913Z,27.63
2023-05-05T23:43:32.519Z,29.95
2023-05-05T23:48:35.115Z,30.80
2023-05-05T23:53:39.042Z,33.93
2023-05-05T23:58:41.628Z,33.55
